sensor_id;sensor_type;location;lat;lon;timestamp;P1;durP1;ratioP1;P2;durP2;ratioP2
74108;SDS011;62466;47.566;7.786;2022-12-01T00:00:34;11.77;;;6.90;;
74108;SDS011;62466;47.566;7.786;2022-12-01T00:03:18;13.85;;;7.45;;
74108;SDS011;62466;47.566;7.786;2022-12-01T00:05:43;12.35;;;7.30;;
74108;SDS011;62466;47.566;7.786;2022-12-01T00:08:21;13.30;;;7.47;;
74108;SDS011;62466;47.566;7.786;2022-12-01T00:10:51;13.63;;;6.95;;
74108;SDS011;62466;47.566;7.786;2022-12-01T00:13:28;15.43;;;8.93;;
74108;SDS011;62466;47.566;7.786;2022-12-01T00:16:22;15.38;;;7.80;;
74108;SDS011;62466;47.566;7.786;2022-12-01T00:19:29;12.23;;;8.07;;
74108;SDS011;62466;47.566;7.786;2022-12-01T00:25:46;14.82;;;7.78;;
74108;SDS011;62466;47.566;7.786;2022-12-01T00:29:40;14.25;;;7.72;;
74108;SDS011;62466;47.566;7.786;2022-12-01T03:34:01;21.30;;;10.48;;
74108;SDS011;62466;47.566;7.786;2022-12-01T04:33:49;21.50;;;10.32;;
74108;SDS011;62466;47.566;7.786;2022-12-01T05:39:13;16.90;;;8.98;;
74108;SDS011;62466;47.566;7.786;2022-12-01T05:45:18;20.77;;;9.93;;
74108;SDS011;62466;47.566;7.786;2022-12-01T05:47:53;20.17;;;10.05;;
74108;SDS011;62466;47.566;7.786;2022-12-01T05:50:43;18.65;;;9.93;;
74108;SDS011;62466;47.566;7.786;2022-12-01T05:53:16;23.45;;;11.00;;
74108;SDS011;62466;47.566;7.786;2022-12-01T05:56:00;19.08;;;10.23;;
74108;SDS011;62466;47.566;7.786;2022-12-01T05:58:45;17.08;;;9.55;;
74108;SDS011;62466;47.566;7.786;2022-12-01T06:01:17;19.90;;;9.52;;
74108;SDS011;62466;47.566;7.786;2022-12-01T06:03:42;20.35;;;11.10;;
74108;SDS011;62466;47.566;7.786;2022-12-01T06:06:08;20.17;;;10.55;;
74108;SDS011;62466;47.566;7.786;2022-12-01T06:27:47;16.98;;;9.20;;
74108;SDS011;62466;47.566;7.786;2022-12-01T06:32:12;15.82;;;9.30;;
74108;SDS011;62466;47.566;7.786;2022-12-01T06:46:58;22.30;;;11.57;;
74108;SDS011;62466;47.566;7.786;2022-12-01T06:50:26;19.83;;;10.88;;
74108;SDS011;62466;47.566;7.786;2022-12-01T06:57:34;21.08;;;10.20;;
74108;SDS011;62466;47.566;7.786;2022-12-01T07:04:54;20.30;;;9.73;;
74108;SDS011;62466;47.566;7.786;2022-12-01T07:07:19;18.90;;;10.00;;
74108;SDS011;62466;47.566;7.786;2022-12-01T07:09:45;17.60;;;10.80;;
74108;SDS011;62466;47.566;7.786;2022-12-01T07:12:10;19.00;;;10.73;;
74108;SDS011;62466;47.566;7.786;2022-12-01T07:14:36;20.95;;;10.55;;
74108;SDS011;62466;47.566;7.786;2022-12-01T07:17:02;19.60;;;10.55;;
74108;SDS011;62466;47.566;7.786;2022-12-01T07:19:27;19.48;;;11.20;;
74108;SDS011;62466;47.566;7.786;2022-12-01T07:21:53;19.75;;;10.68;;
74108;SDS011;62466;47.566;7.786;2022-12-01T07:24:18;17.75;;;10.35;;
74108;SDS011;62466;47.566;7.786;2022-12-01T07:26:44;19.98;;;10.30;;
74108;SDS011;62466;47.566;7.786;2022-12-01T07:29:09;20.70;;;10.55;;
74108;SDS011;62466;47.566;7.786;2022-12-01T07:31:36;16.63;;;9.98;;
74108;SDS011;62466;47.566;7.786;2022-12-01T07:34:02;16.55;;;9.98;;
74108;SDS011;62466;47.566;7.786;2022-12-01T07:36:28;22.20;;;10.82;;
74108;SDS011;62466;47.566;7.786;2022-12-01T07:38:53;19.52;;;10.98;;
74108;SDS011;62466;47.566;7.786;2022-12-01T07:41:19;18.98;;;10.55;;
74108;SDS011;62466;47.566;7.786;2022-12-01T07:43:48;16.70;;;10.45;;
74108;SDS011;62466;47.566;7.786;2022-12-01T07:48:43;18.52;;;10.07;;
74108;SDS011;62466;47.566;7.786;2022-12-01T07:51:11;19.60;;;10.05;;
74108;SDS011;62466;47.566;7.786;2022-12-01T07:53:39;18.55;;;9.82;;
74108;SDS011;62466;47.566;7.786;2022-12-01T07:56:04;14.60;;;8.88;;
74108;SDS011;62466;47.566;7.786;2022-12-01T07:58:30;17.33;;;8.80;;
74108;SDS011;62466;47.566;7.786;2022-12-01T08:00:56;16.63;;;8.82;;
74108;SDS011;62466;47.566;7.786;2022-12-01T08:03:21;15.77;;;9.70;;
74108;SDS011;62466;47.566;7.786;2022-12-01T08:05:57;14.77;;;9.27;;
74108;SDS011;62466;47.566;7.786;2022-12-01T08:08:23;19.17;;;8.88;;
74108;SDS011;62466;47.566;7.786;2022-12-01T08:10:49;18.35;;;9.73;;
74108;SDS011;62466;47.566;7.786;2022-12-01T08:13:15;14.63;;;9.27;;
74108;SDS011;62466;47.566;7.786;2022-12-01T08:15:40;16.90;;;9.43;;
74108;SDS011;62466;47.566;7.786;2022-12-01T08:18:06;17.30;;;9.63;;
74108;SDS011;62466;47.566;7.786;2022-12-01T08:20:31;15.52;;;9.32;;
74108;SDS011;62466;47.566;7.786;2022-12-01T08:23:00;18.13;;;10.00;;
74108;SDS011;62466;47.566;7.786;2022-12-01T08:25:26;16.00;;;8.05;;
74108;SDS011;62466;47.566;7.786;2022-12-01T08:27:52;18.85;;;9.60;;
74108;SDS011;62466;47.566;7.786;2022-12-01T08:30:18;17.65;;;9.07;;
74108;SDS011;62466;47.566;7.786;2022-12-01T08:32:43;17.52;;;9.23;;
74108;SDS011;62466;47.566;7.786;2022-12-01T08:35:09;18.52;;;9.05;;
74108;SDS011;62466;47.566;7.786;2022-12-01T08:37:34;19.48;;;9.90;;
74108;SDS011;62466;47.566;7.786;2022-12-01T08:40:00;14.73;;;8.52;;
74108;SDS011;62466;47.566;7.786;2022-12-01T08:42:25;13.40;;;8.20;;
74108;SDS011;62466;47.566;7.786;2022-12-01T08:44:51;17.42;;;9.80;;
74108;SDS011;62466;47.566;7.786;2022-12-01T08:47:17;18.27;;;10.20;;
74108;SDS011;62466;47.566;7.786;2022-12-01T08:49:42;15.55;;;9.00;;
74108;SDS011;62466;47.566;7.786;2022-12-01T08:52:07;14.13;;;8.73;;
74108;SDS011;62466;47.566;7.786;2022-12-01T08:54:33;16.13;;;8.98;;
74108;SDS011;62466;47.566;7.786;2022-12-01T08:56:58;16.45;;;8.13;;
74108;SDS011;62466;47.566;7.786;2022-12-01T08:59:24;18.10;;;10.05;;
74108;SDS011;62466;47.566;7.786;2022-12-01T09:01:49;14.77;;;8.57;;
74108;SDS011;62466;47.566;7.786;2022-12-01T09:04:19;15.18;;;8.75;;
74108;SDS011;62466;47.566;7.786;2022-12-01T09:06:46;14.85;;;8.35;;
74108;SDS011;62466;47.566;7.786;2022-12-01T09:09:13;14.02;;;7.68;;
74108;SDS011;62466;47.566;7.786;2022-12-01T09:11:44;15.32;;;8.77;;
74108;SDS011;62466;47.566;7.786;2022-12-01T09:14:12;16.30;;;9.05;;
74108;SDS011;62466;47.566;7.786;2022-12-01T09:16:38;16.30;;;8.25;;
74108;SDS011;62466;47.566;7.786;2022-12-01T09:19:04;17.73;;;8.45;;
74108;SDS011;62466;47.566;7.786;2022-12-01T09:21:31;16.02;;;8.32;;
74108;SDS011;62466;47.566;7.786;2022-12-01T09:23:58;17.20;;;8.88;;
74108;SDS011;62466;47.566;7.786;2022-12-01T09:26:24;15.98;;;8.18;;
74108;SDS011;62466;47.566;7.786;2022-12-01T09:28:54;16.23;;;8.02;;
74108;SDS011;62466;47.566;7.786;2022-12-01T09:31:22;15.70;;;8.88;;
74108;SDS011;62466;47.566;7.786;2022-12-01T09:33:53;17.67;;;9.27;;
74108;SDS011;62466;47.566;7.786;2022-12-01T09:36:19;20.08;;;10.40;;
74108;SDS011;62466;47.566;7.786;2022-12-01T09:38:45;19.45;;;10.50;;
74108;SDS011;62466;47.566;7.786;2022-12-01T09:41:14;15.73;;;9.18;;
74108;SDS011;62466;47.566;7.786;2022-12-01T09:44:06;16.13;;;8.82;;
74108;SDS011;62466;47.566;7.786;2022-12-01T09:46:38;18.20;;;9.65;;
74108;SDS011;62466;47.566;7.786;2022-12-01T09:49:11;15.35;;;9.30;;
74108;SDS011;62466;47.566;7.786;2022-12-01T09:51:46;14.02;;;8.75;;
74108;SDS011;62466;47.566;7.786;2022-12-01T09:54:13;16.20;;;9.60;;
74108;SDS011;62466;47.566;7.786;2022-12-01T09:56:43;16.67;;;9.35;;
74108;SDS011;62466;47.566;7.786;2022-12-01T09:59:18;14.05;;;8.07;;
74108;SDS011;62466;47.566;7.786;2022-12-01T10:01:48;15.43;;;8.50;;
74108;SDS011;62466;47.566;7.786;2022-12-01T10:04:24;14.38;;;8.70;;
74108;SDS011;62466;47.566;7.786;2022-12-01T10:14:43;16.67;;;8.68;;
74108;SDS011;62466;47.566;7.786;2022-12-01T10:25:22;17.15;;;8.80;;
74108;SDS011;62466;47.566;7.786;2022-12-01T10:30:21;13.68;;;8.00;;
74108;SDS011;62466;47.566;7.786;2022-12-01T10:35:18;18.42;;;9.38;;
74108;SDS011;62466;47.566;7.786;2022-12-01T10:37:46;19.05;;;9.30;;
74108;SDS011;62466;47.566;7.786;2022-12-01T10:40:16;16.45;;;8.55;;
74108;SDS011;62466;47.566;7.786;2022-12-01T10:42:43;15.10;;;8.82;;
74108;SDS011;62466;47.566;7.786;2022-12-01T11:06:38;16.05;;;9.10;;
74108;SDS011;62466;47.566;7.786;2022-12-01T11:28:49;17.88;;;9.25;;
74108;SDS011;62466;47.566;7.786;2022-12-01T11:35:13;21.33;;;9.30;;
74108;SDS011;62466;47.566;7.786;2022-12-01T11:41:45;17.23;;;8.40;;
74108;SDS011;62466;47.566;7.786;2022-12-01T11:54:05;18.83;;;10.10;;
74108;SDS011;62466;47.566;7.786;2022-12-01T11:56:47;20.20;;;10.13;;
74108;SDS011;62466;47.566;7.786;2022-12-01T11:59:29;21.40;;;9.70;;
74108;SDS011;62466;47.566;7.786;2022-12-01T12:38:10;18.52;;;9.65;;
74108;SDS011;62466;47.566;7.786;2022-12-01T12:40:41;19.42;;;9.95;;
74108;SDS011;62466;47.566;7.786;2022-12-01T12:46:36;21.10;;;9.82;;
74108;SDS011;62466;47.566;7.786;2022-12-01T12:51:54;18.33;;;9.60;;
74108;SDS011;62466;47.566;7.786;2022-12-01T12:54:48;17.70;;;9.98;;
74108;SDS011;62466;47.566;7.786;2022-12-01T12:59:47;21.90;;;11.23;;
74108;SDS011;62466;47.566;7.786;2022-12-01T13:02:21;17.45;;;9.10;;
74108;SDS011;62466;47.566;7.786;2022-12-01T13:04:53;18.30;;;9.90;;
74108;SDS011;62466;47.566;7.786;2022-12-01T13:15:48;21.90;;;10.15;;
74108;SDS011;62466;47.566;7.786;2022-12-01T13:20:46;21.45;;;11.20;;
74108;SDS011;62466;47.566;7.786;2022-12-01T13:23:13;19.65;;;9.45;;
74108;SDS011;62466;47.566;7.786;2022-12-01T13:25:39;19.83;;;10.60;;
74108;SDS011;62466;47.566;7.786;2022-12-01T13:28:10;21.65;;;9.85;;
74108;SDS011;62466;47.566;7.786;2022-12-01T13:30:39;17.88;;;10.07;;
74108;SDS011;62466;47.566;7.786;2022-12-01T13:33:05;19.40;;;9.23;;
74108;SDS011;62466;47.566;7.786;2022-12-01T13:35:32;18.92;;;9.98;;
74108;SDS011;62466;47.566;7.786;2022-12-01T13:38:17;22.27;;;10.32;;
74108;SDS011;62466;47.566;7.786;2022-12-01T13:40:43;18.83;;;10.20;;
74108;SDS011;62466;47.566;7.786;2022-12-01T13:43:19;22.30;;;10.10;;
74108;SDS011;62466;47.566;7.786;2022-12-01T13:45:46;17.17;;;9.45;;
74108;SDS011;62466;47.566;7.786;2022-12-01T13:48:29;17.42;;;10.88;;
74108;SDS011;62466;47.566;7.786;2022-12-01T13:51:14;23.75;;;10.90;;
74108;SDS011;62466;47.566;7.786;2022-12-01T13:56:23;20.23;;;9.82;;
74108;SDS011;62466;47.566;7.786;2022-12-01T13:58:52;18.08;;;9.60;;
74108;SDS011;62466;47.566;7.786;2022-12-01T14:03:54;23.65;;;10.45;;
74108;SDS011;62466;47.566;7.786;2022-12-01T14:06:41;20.08;;;11.60;;
74108;SDS011;62466;47.566;7.786;2022-12-01T14:14:36;19.90;;;9.55;;
74108;SDS011;62466;47.566;7.786;2022-12-01T14:17:03;21.30;;;10.15;;
74108;SDS011;62466;47.566;7.786;2022-12-01T14:19:32;18.50;;;9.40;;
74108;SDS011;62466;47.566;7.786;2022-12-01T14:22:01;20.67;;;9.88;;
74108;SDS011;62466;47.566;7.786;2022-12-01T14:24:30;22.17;;;10.60;;
74108;SDS011;62466;47.566;7.786;2022-12-01T14:26:59;20.13;;;10.73;;
74108;SDS011;62466;47.566;7.786;2022-12-01T14:29:26;22.90;;;10.60;;
74108;SDS011;62466;47.566;7.786;2022-12-01T14:34:21;18.48;;;9.90;;
74108;SDS011;62466;47.566;7.786;2022-12-01T14:36:50;24.98;;;11.15;;
74108;SDS011;62466;47.566;7.786;2022-12-01T14:39:21;19.50;;;10.75;;
74108;SDS011;62466;47.566;7.786;2022-12-01T14:41:52;20.30;;;9.77;;
74108;SDS011;62466;47.566;7.786;2022-12-01T14:47:00;17.83;;;10.07;;
74108;SDS011;62466;47.566;7.786;2022-12-01T14:54:53;20.38;;;9.77;;
74108;SDS011;62466;47.566;7.786;2022-12-01T14:57:23;24.50;;;10.75;;
74108;SDS011;62466;47.566;7.786;2022-12-01T15:02:27;21.25;;;10.30;;
74108;SDS011;62466;47.566;7.786;2022-12-01T15:05:05;21.02;;;10.75;;
74108;SDS011;62466;47.566;7.786;2022-12-01T15:07:38;21.20;;;9.98;;
74108;SDS011;62466;47.566;7.786;2022-12-01T15:10:04;21.83;;;10.57;;
74108;SDS011;62466;47.566;7.786;2022-12-01T15:12:39;17.38;;;10.98;;
74108;SDS011;62466;47.566;7.786;2022-12-01T15:15:12;18.98;;;9.98;;
74108;SDS011;62466;47.566;7.786;2022-12-01T15:17:42;20.23;;;11.00;;
74108;SDS011;62466;47.566;7.786;2022-12-01T15:23:12;20.02;;;10.68;;
74108;SDS011;62466;47.566;7.786;2022-12-01T15:25:42;19.10;;;11.13;;
74108;SDS011;62466;47.566;7.786;2022-12-01T15:30:49;22.00;;;10.80;;
74108;SDS011;62466;47.566;7.786;2022-12-01T15:33:25;18.92;;;10.52;;
74108;SDS011;62466;47.566;7.786;2022-12-01T15:35:58;21.80;;;11.27;;
74108;SDS011;62466;47.566;7.786;2022-12-01T15:38:28;20.88;;;10.90;;
74108;SDS011;62466;47.566;7.786;2022-12-01T15:40:56;17.25;;;9.63;;
74108;SDS011;62466;47.566;7.786;2022-12-01T15:43:31;19.20;;;10.90;;
74108;SDS011;62466;47.566;7.786;2022-12-01T15:46:13;22.13;;;12.15;;
74108;SDS011;62466;47.566;7.786;2022-12-01T15:48:43;20.52;;;10.15;;
74108;SDS011;62466;47.566;7.786;2022-12-01T15:51:10;20.63;;;9.93;;
74108;SDS011;62466;47.566;7.786;2022-12-01T15:53:57;17.75;;;9.80;;
74108;SDS011;62466;47.566;7.786;2022-12-01T15:56:24;18.20;;;9.73;;
74108;SDS011;62466;47.566;7.786;2022-12-01T15:58:51;19.92;;;10.82;;
74108;SDS011;62466;47.566;7.786;2022-12-01T16:01:21;20.85;;;10.57;;
74108;SDS011;62466;47.566;7.786;2022-12-01T16:04:17;22.05;;;10.57;;
74108;SDS011;62466;47.566;7.786;2022-12-01T16:06:50;22.35;;;11.13;;
74108;SDS011;62466;47.566;7.786;2022-12-01T16:09:38;22.52;;;11.45;;
74108;SDS011;62466;47.566;7.786;2022-12-01T16:14:47;24.00;;;11.43;;
74108;SDS011;62466;47.566;7.786;2022-12-01T16:17:15;16.90;;;9.10;;
74108;SDS011;62466;47.566;7.786;2022-12-01T16:19:41;19.17;;;10.50;;
74108;SDS011;62466;47.566;7.786;2022-12-01T16:22:12;18.08;;;10.65;;
74108;SDS011;62466;47.566;7.786;2022-12-01T16:27:18;18.77;;;9.82;;
74108;SDS011;62466;47.566;7.786;2022-12-01T16:32:31;19.90;;;9.82;;
74108;SDS011;62466;47.566;7.786;2022-12-01T16:34:58;18.75;;;10.50;;
74108;SDS011;62466;47.566;7.786;2022-12-01T16:37:24;21.25;;;10.07;;
74108;SDS011;62466;47.566;7.786;2022-12-01T16:39:50;20.90;;;10.32;;
74108;SDS011;62466;47.566;7.786;2022-12-01T16:42:17;21.05;;;11.40;;
74108;SDS011;62466;47.566;7.786;2022-12-01T16:44:45;21.33;;;11.07;;
74108;SDS011;62466;47.566;7.786;2022-12-01T16:49:41;23.38;;;11.48;;
74108;SDS011;62466;47.566;7.786;2022-12-01T16:52:08;22.33;;;11.43;;
74108;SDS011;62466;47.566;7.786;2022-12-01T16:54:34;20.17;;;11.45;;
74108;SDS011;62466;47.566;7.786;2022-12-01T16:56:59;21.98;;;10.55;;
74108;SDS011;62466;47.566;7.786;2022-12-01T16:59:25;24.58;;;11.60;;
74108;SDS011;62466;47.566;7.786;2022-12-01T17:01:51;22.27;;;11.60;;
74108;SDS011;62466;47.566;7.786;2022-12-01T17:04:16;21.75;;;11.65;;
74108;SDS011;62466;47.566;7.786;2022-12-01T17:06:42;21.95;;;11.63;;
74108;SDS011;62466;47.566;7.786;2022-12-01T17:09:07;21.23;;;10.40;;
74108;SDS011;62466;47.566;7.786;2022-12-01T17:11:33;18.95;;;9.65;;
74108;SDS011;62466;47.566;7.786;2022-12-01T17:13:59;21.02;;;12.30;;
74108;SDS011;62466;47.566;7.786;2022-12-01T17:16:25;19.90;;;10.18;;
74108;SDS011;62466;47.566;7.786;2022-12-01T17:18:50;18.50;;;10.05;;
74108;SDS011;62466;47.566;7.786;2022-12-01T17:21:16;22.98;;;12.18;;
74108;SDS011;62466;47.566;7.786;2022-12-01T17:23:42;19.08;;;10.82;;
74108;SDS011;62466;47.566;7.786;2022-12-01T17:26:09;19.40;;;11.45;;
74108;SDS011;62466;47.566;7.786;2022-12-01T17:28:37;19.35;;;11.85;;
74108;SDS011;62466;47.566;7.786;2022-12-01T17:31:02;21.60;;;10.63;;
74108;SDS011;62466;47.566;7.786;2022-12-01T17:33:30;23.35;;;11.85;;
74108;SDS011;62466;47.566;7.786;2022-12-01T17:36:00;22.02;;;11.68;;
74108;SDS011;62466;47.566;7.786;2022-12-01T17:38:29;21.40;;;10.50;;
74108;SDS011;62466;47.566;7.786;2022-12-01T17:41:08;25.55;;;11.27;;
74108;SDS011;62466;47.566;7.786;2022-12-01T17:43:37;22.70;;;10.55;;
74108;SDS011;62466;47.566;7.786;2022-12-01T17:46:03;23.77;;;11.13;;
74108;SDS011;62466;47.566;7.786;2022-12-01T17:48:40;20.25;;;11.25;;
74108;SDS011;62466;47.566;7.786;2022-12-01T17:51:07;20.13;;;11.05;;
74108;SDS011;62466;47.566;7.786;2022-12-01T17:53:34;20.30;;;11.10;;
74108;SDS011;62466;47.566;7.786;2022-12-01T17:56:00;22.85;;;10.98;;
74108;SDS011;62466;47.566;7.786;2022-12-01T17:58:29;23.50;;;11.68;;
74108;SDS011;62466;47.566;7.786;2022-12-01T18:00:54;24.02;;;11.18;;
74108;SDS011;62466;47.566;7.786;2022-12-01T18:03:20;21.13;;;10.30;;
74108;SDS011;62466;47.566;7.786;2022-12-01T18:08:21;22.65;;;11.90;;
74108;SDS011;62466;47.566;7.786;2022-12-01T18:10:48;23.30;;;11.10;;
74108;SDS011;62466;47.566;7.786;2022-12-01T18:13:13;23.23;;;11.35;;
74108;SDS011;62466;47.566;7.786;2022-12-01T18:15:39;20.02;;;10.50;;
74108;SDS011;62466;47.566;7.786;2022-12-01T18:18:05;23.30;;;11.80;;
74108;SDS011;62466;47.566;7.786;2022-12-01T18:20:30;23.23;;;11.40;;
74108;SDS011;62466;47.566;7.786;2022-12-01T18:22:56;20.60;;;10.02;;
74108;SDS011;62466;47.566;7.786;2022-12-01T18:25:22;21.30;;;11.63;;
74108;SDS011;62466;47.566;7.786;2022-12-01T18:27:47;19.85;;;11.07;;
74108;SDS011;62466;47.566;7.786;2022-12-01T18:30:15;21.30;;;10.73;;
74108;SDS011;62466;47.566;7.786;2022-12-01T18:32:40;23.05;;;12.15;;
74108;SDS011;62466;47.566;7.786;2022-12-01T18:35:06;23.58;;;12.48;;
74108;SDS011;62466;47.566;7.786;2022-12-01T18:37:32;20.77;;;11.98;;
74108;SDS011;62466;47.566;7.786;2022-12-01T18:40:00;25.02;;;12.40;;
74108;SDS011;62466;47.566;7.786;2022-12-01T18:42:26;24.33;;;11.95;;
74108;SDS011;62466;47.566;7.786;2022-12-01T18:44:52;20.20;;;11.70;;
74108;SDS011;62466;47.566;7.786;2022-12-01T18:47:17;22.58;;;10.65;;
74108;SDS011;62466;47.566;7.786;2022-12-01T18:49:43;22.05;;;11.43;;
74108;SDS011;62466;47.566;7.786;2022-12-01T18:52:11;22.38;;;10.60;;
74108;SDS011;62466;47.566;7.786;2022-12-01T18:54:37;20.85;;;11.35;;
74108;SDS011;62466;47.566;7.786;2022-12-01T18:57:02;24.73;;;10.40;;
74108;SDS011;62466;47.566;7.786;2022-12-01T18:59:28;25.63;;;12.63;;
74108;SDS011;62466;47.566;7.786;2022-12-01T19:01:54;19.52;;;10.52;;
74108;SDS011;62466;47.566;7.786;2022-12-01T19:04:19;22.40;;;12.60;;
74108;SDS011;62466;47.566;7.786;2022-12-01T19:06:45;24.73;;;11.55;;
74108;SDS011;62466;47.566;7.786;2022-12-01T19:09:11;20.00;;;10.52;;
74108;SDS011;62466;47.566;7.786;2022-12-01T19:11:41;24.25;;;11.98;;
74108;SDS011;62466;47.566;7.786;2022-12-01T19:14:09;19.15;;;11.25;;
74108;SDS011;62466;47.566;7.786;2022-12-01T19:16:43;21.60;;;11.93;;
74108;SDS011;62466;47.566;7.786;2022-12-01T19:19:09;23.77;;;10.88;;
74108;SDS011;62466;47.566;7.786;2022-12-01T19:21:37;19.80;;;11.85;;
74108;SDS011;62466;47.566;7.786;2022-12-01T19:24:03;21.80;;;11.20;;
74108;SDS011;62466;47.566;7.786;2022-12-01T19:26:29;22.25;;;11.10;;
74108;SDS011;62466;47.566;7.786;2022-12-01T19:29:02;20.30;;;11.55;;
74108;SDS011;62466;47.566;7.786;2022-12-01T19:31:43;22.40;;;10.98;;
74108;SDS011;62466;47.566;7.786;2022-12-01T19:34:12;25.40;;;11.55;;
74108;SDS011;62466;47.566;7.786;2022-12-01T19:36:44;25.77;;;11.85;;
74108;SDS011;62466;47.566;7.786;2022-12-01T19:39:10;22.15;;;11.93;;
74108;SDS011;62466;47.566;7.786;2022-12-01T19:41:35;21.17;;;11.95;;
74108;SDS011;62466;47.566;7.786;2022-12-01T19:44:03;21.00;;;11.90;;
74108;SDS011;62466;47.566;7.786;2022-12-01T19:46:47;23.58;;;12.18;;
74108;SDS011;62466;47.566;7.786;2022-12-01T19:49:13;25.17;;;12.52;;
74108;SDS011;62466;47.566;7.786;2022-12-01T19:51:38;22.65;;;12.00;;
74108;SDS011;62466;47.566;7.786;2022-12-01T19:54:10;24.38;;;11.95;;
74108;SDS011;62466;47.566;7.786;2022-12-01T19:56:38;24.35;;;12.05;;
74108;SDS011;62466;47.566;7.786;2022-12-01T19:59:06;24.17;;;12.82;;
74108;SDS011;62466;47.566;7.786;2022-12-01T20:01:34;22.40;;;12.13;;
74108;SDS011;62466;47.566;7.786;2022-12-01T20:03:59;20.40;;;11.57;;
74108;SDS011;62466;47.566;7.786;2022-12-01T20:06:32;24.67;;;12.32;;
74108;SDS011;62466;47.566;7.786;2022-12-01T20:09:02;22.70;;;12.30;;
74108;SDS011;62466;47.566;7.786;2022-12-01T20:11:29;26.27;;;12.48;;
74108;SDS011;62466;47.566;7.786;2022-12-01T20:14:02;25.08;;;12.60;;
74108;SDS011;62466;47.566;7.786;2022-12-01T20:16:31;23.75;;;12.02;;
74108;SDS011;62466;47.566;7.786;2022-12-01T20:18:59;23.08;;;12.85;;
74108;SDS011;62466;47.566;7.786;2022-12-01T20:21:26;28.13;;;12.73;;
74108;SDS011;62466;47.566;7.786;2022-12-01T20:23:55;21.52;;;10.75;;
74108;SDS011;62466;47.566;7.786;2022-12-01T20:26:26;25.98;;;12.68;;
74108;SDS011;62466;47.566;7.786;2022-12-01T20:28:56;22.98;;;12.05;;
74108;SDS011;62466;47.566;7.786;2022-12-01T20:31:24;28.98;;;14.15;;
74108;SDS011;62466;47.566;7.786;2022-12-01T20:33:51;26.40;;;13.07;;
74108;SDS011;62466;47.566;7.786;2022-12-01T20:36:18;20.80;;;11.75;;
74108;SDS011;62466;47.566;7.786;2022-12-01T20:38:44;21.90;;;12.77;;
74108;SDS011;62466;47.566;7.786;2022-12-01T20:41:10;29.08;;;12.50;;
74108;SDS011;62466;47.566;7.786;2022-12-01T20:43:39;25.90;;;12.77;;
74108;SDS011;62466;47.566;7.786;2022-12-01T20:46:05;22.98;;;12.82;;
74108;SDS011;62466;47.566;7.786;2022-12-01T20:48:31;24.67;;;12.30;;
74108;SDS011;62466;47.566;7.786;2022-12-01T20:51:01;22.02;;;11.30;;
74108;SDS011;62466;47.566;7.786;2022-12-01T20:53:28;26.33;;;13.15;;
74108;SDS011;62466;47.566;7.786;2022-12-01T20:55:54;26.92;;;13.25;;
74108;SDS011;62466;47.566;7.786;2022-12-01T20:58:20;25.73;;;13.02;;
74108;SDS011;62466;47.566;7.786;2022-12-01T21:00:46;21.10;;;10.85;;
74108;SDS011;62466;47.566;7.786;2022-12-01T21:03:12;22.35;;;12.63;;
74108;SDS011;62466;47.566;7.786;2022-12-01T21:05:39;21.70;;;12.32;;
74108;SDS011;62466;47.566;7.786;2022-12-01T21:08:07;20.83;;;11.07;;
74108;SDS011;62466;47.566;7.786;2022-12-01T21:10:38;22.27;;;11.45;;
74108;SDS011;62466;47.566;7.786;2022-12-01T21:13:21;27.23;;;13.48;;
74108;SDS011;62466;47.566;7.786;2022-12-01T21:21:25;25.98;;;12.27;;
74108;SDS011;62466;47.566;7.786;2022-12-01T21:26:30;23.30;;;12.77;;
74108;SDS011;62466;47.566;7.786;2022-12-01T21:28:57;22.05;;;11.50;;
74108;SDS011;62466;47.566;7.786;2022-12-01T21:31:24;23.35;;;11.82;;
74108;SDS011;62466;47.566;7.786;2022-12-01T21:33:50;21.90;;;11.40;;
74108;SDS011;62466;47.566;7.786;2022-12-01T21:36:20;25.13;;;11.57;;
74108;SDS011;62466;47.566;7.786;2022-12-01T21:38:47;25.20;;;12.67;;
74108;SDS011;62466;47.566;7.786;2022-12-01T21:41:17;26.08;;;11.57;;
74108;SDS011;62466;47.566;7.786;2022-12-01T21:43:47;24.80;;;12.60;;
74108;SDS011;62466;47.566;7.786;2022-12-01T21:46:13;28.90;;;13.23;;
74108;SDS011;62466;47.566;7.786;2022-12-01T21:48:40;28.40;;;13.43;;
74108;SDS011;62466;47.566;7.786;2022-12-01T21:51:11;26.65;;;13.65;;
74108;SDS011;62466;47.566;7.786;2022-12-01T21:53:50;27.88;;;12.63;;
74108;SDS011;62466;47.566;7.786;2022-12-01T21:56:24;24.88;;;12.82;;
74108;SDS011;62466;47.566;7.786;2022-12-01T21:59:01;23.98;;;13.13;;
74108;SDS011;62466;47.566;7.786;2022-12-01T22:01:33;26.25;;;12.70;;
74108;SDS011;62466;47.566;7.786;2022-12-01T22:03:59;27.75;;;13.68;;
74108;SDS011;62466;47.566;7.786;2022-12-01T22:06:36;28.10;;;13.63;;
74108;SDS011;62466;47.566;7.786;2022-12-01T22:09:16;31.33;;;13.80;;
74108;SDS011;62466;47.566;7.786;2022-12-01T22:11:52;21.42;;;12.55;;
74108;SDS011;62466;47.566;7.786;2022-12-01T22:14:21;26.75;;;13.13;;
74108;SDS011;62466;47.566;7.786;2022-12-01T22:16:55;23.23;;;13.27;;
74108;SDS011;62466;47.566;7.786;2022-12-01T22:20:00;26.15;;;13.05;;
74108;SDS011;62466;47.566;7.786;2022-12-01T22:22:27;24.92;;;12.32;;
74108;SDS011;62466;47.566;7.786;2022-12-01T22:24:57;24.90;;;12.05;;
74108;SDS011;62466;47.566;7.786;2022-12-01T22:29:55;24.38;;;12.55;;
74108;SDS011;62466;47.566;7.786;2022-12-01T22:37:39;25.63;;;14.10;;
74108;SDS011;62466;47.566;7.786;2022-12-01T22:41:15;30.25;;;13.60;;
74108;SDS011;62466;47.566;7.786;2022-12-01T22:46:00;24.30;;;13.27;;
74108;SDS011;62466;47.566;7.786;2022-12-01T22:48:45;29.55;;;13.55;;
74108;SDS011;62466;47.566;7.786;2022-12-01T22:53:50;23.70;;;13.18;;
74108;SDS011;62466;47.566;7.786;2022-12-01T22:58:50;29.27;;;13.05;;
74108;SDS011;62466;47.566;7.786;2022-12-01T23:01:20;25.35;;;13.25;;
74108;SDS011;62466;47.566;7.786;2022-12-01T23:16:40;22.60;;;13.00;;
74108;SDS011;62466;47.566;7.786;2022-12-01T23:19:06;27.45;;;12.07;;
74108;SDS011;62466;47.566;7.786;2022-12-01T23:21:34;26.75;;;12.93;;
74108;SDS011;62466;47.566;7.786;2022-12-01T23:24:03;27.77;;;13.32;;
74108;SDS011;62466;47.566;7.786;2022-12-01T23:26:29;25.50;;;12.82;;
74108;SDS011;62466;47.566;7.786;2022-12-01T23:28:55;27.08;;;13.32;;
74108;SDS011;62466;47.566;7.786;2022-12-01T23:31:22;27.70;;;13.68;;
74108;SDS011;62466;47.566;7.786;2022-12-01T23:33:49;25.83;;;12.25;;
74108;SDS011;62466;47.566;7.786;2022-12-01T23:36:20;25.10;;;13.10;;
74108;SDS011;62466;47.566;7.786;2022-12-01T23:38:51;27.38;;;12.90;;
74108;SDS011;62466;47.566;7.786;2022-12-01T23:41:52;23.45;;;11.70;;
74108;SDS011;62466;47.566;7.786;2022-12-01T23:46:43;24.25;;;12.63;;
74108;SDS011;62466;47.566;7.786;2022-12-01T23:49:10;22.10;;;13.07;;
74108;SDS011;62466;47.566;7.786;2022-12-01T23:51:41;22.02;;;12.32;;
74108;SDS011;62466;47.566;7.786;2022-12-01T23:54:15;25.67;;;12.85;;
74108;SDS011;62466;47.566;7.786;2022-12-01T23:56:45;26.80;;;13.63;;
74108;SDS011;62466;47.566;7.786;2022-12-01T23:59:14;22.70;;;12.95;;
